createdAt,value
2018-12-21T00:00:36.442Z,77.31
2018-12-21T00:01:36.625Z,77.62
2018-12-21T00:02:36.403Z,77.45
2018-12-21T00:03:36.406Z,77.52
2018-12-21T00:04:36.372Z,77.01
2018-12-21T00:05:36.424Z,77.15
2018-12-21T00:06:36.378Z,77.11
2018-12-21T00:07:36.341Z,77.01
2018-12-21T00:08:36.389Z,77.11
2018-12-21T00:09:36.339Z,77.31
2018-12-21T00:10:36.302Z,77.31
2018-12-21T00:11:36.350Z,77.11
2018-12-21T00:12:36.286Z,76.70
2018-12-21T00:13:36.275Z,77.11
2018-12-21T00:14:36.264Z,77.22
2018-12-21T00:15:36.251Z,76.80
2018-12-21T00:16:36.275Z,77.01
2018-12-21T00:17:36.241Z,77.11
2018-12-21T00:18:36.232Z,77.31
2018-12-21T00:19:36.216Z,77.31
2018-12-21T00:20:36.206Z,77.31
2018-12-21T00:21:36.226Z,77.22
2018-12-21T00:22:36.220Z,77.11
2018-12-21T00:23:36.182Z,77.01
2018-12-21T00:24:36.165Z,76.59
2018-12-21T00:25:36.145Z,77.11
2018-12-21T00:26:36.160Z,77.31
2018-12-21T00:27:36.142Z,77.01
2018-12-21T00:28:36.113Z,76.80
2018-12-21T00:29:36.144Z,76.70
2018-12-21T00:30:36.093Z,76.80
2018-12-21T00:31:36.076Z,76.90
2018-12-21T00:32:36.079Z,77.11
2018-12-21T00:33:36.062Z,77.01
2018-12-21T00:34:36.051Z,76.70
2018-12-21T00:35:36.056Z,76.59
2018-12-21T00:36:36.026Z,76.49
2018-12-21T00:37:36.057Z,76.80
2018-12-21T00:38:35.997Z,77.22
2018-12-21T00:39:35.992Z,76.73
2018-12-21T00:40:35.980Z,76.59
2018-12-21T00:41:36.000Z,76.90
2018-12-21T00:42:35.950Z,76.70
2018-12-21T00:43:35.960Z,77.11
2018-12-21T00:44:35.961Z,76.90
2018-12-21T00:45:35.916Z,76.70
2018-12-21T00:46:35.922Z,77.22
2018-12-21T00:47:35.893Z,77.22
2018-12-21T00:48:35.913Z,77.11
2018-12-21T00:49:35.879Z,77.31
2018-12-21T00:50:35.883Z,76.90
2018-12-21T00:51:35.849Z,77.62
2018-12-21T00:52:35.842Z,77.87
2018-12-21T00:53:35.873Z,78.08
2018-12-21T00:54:35.819Z,78.59
2018-12-21T00:55:35.809Z,78.28
2018-12-21T00:56:35.834Z,78.28
2018-12-21T00:57:35.819Z,78.28
2018-12-21T00:58:35.775Z,78.80
2018-12-21T00:59:35.790Z,78.80
2018-12-21T01:00:35.753Z,79.11
2018-12-21T01:01:35.765Z,79.21
2018-12-21T01:02:35.753Z,79.52
2018-12-21T01:03:35.715Z,79.72
2018-12-21T01:04:35.729Z,79.31
2018-12-21T01:05:35.696Z,79.72
2018-12-21T01:06:35.691Z,80.04
2018-12-21T01:07:35.678Z,80.04
2018-12-21T01:08:35.665Z,80.14
2018-12-21T01:09:35.715Z,80.96
2018-12-21T01:10:35.645Z,81.17
2018-12-21T01:11:35.630Z,81.58
2018-12-21T01:12:35.617Z,81.07
2018-12-21T01:13:35.642Z,81.58
2018-12-21T01:14:35.620Z,81.07
2018-12-21T01:15:35.616Z,81.17
2018-12-21T01:16:35.625Z,81.79
2018-12-21T01:17:35.566Z,81.58
2018-12-21T01:18:35.553Z,81.99
2018-12-21T01:19:35.553Z,82.71
2018-12-21T01:20:35.561Z,82.71
2018-12-21T01:21:38.971Z,82.40
2018-12-21T01:22:35.508Z,82.71
2018-12-21T01:23:35.496Z,82.40
2018-12-21T01:24:35.518Z,82.92
2018-12-21T01:25:35.521Z,82.92
2018-12-21T01:26:35.478Z,82.61
2018-12-21T01:27:35.459Z,83.03
2018-12-21T01:28:35.436Z,83.44
2018-12-21T01:29:35.428Z,83.44
2018-12-21T01:30:35.449Z,83.44
2018-12-21T01:31:35.450Z,83.44
2018-12-21T01:32:35.399Z,83.23
2018-12-21T01:33:35.413Z,84.51
2018-12-21T01:34:35.380Z,84.61
2018-12-21T01:35:35.361Z,84.16
2018-12-21T01:36:35.379Z,84.06
2018-12-21T01:37:35.348Z,84.72
2018-12-21T01:38:35.448Z,84.41
2018-12-21T01:39:35.322Z,84.61
2018-12-21T01:40:35.315Z,84.72
2018-12-21T01:41:35.334Z,84.61
2018-12-21T01:42:35.291Z,84.78
2018-12-21T01:43:35.284Z,84.99
2018-12-21T01:44:35.267Z,84.30
2018-12-21T01:45:35.256Z,84.99
2018-12-21T01:46:35.241Z,84.88
2018-12-21T01:47:35.250Z,84.67
2018-12-21T01:48:35.234Z,84.61
2018-12-21T01:49:35.321Z,84.30
2018-12-21T01:50:35.214Z,84.61
2018-12-21T01:51:35.198Z,84.81
2018-12-21T01:52:35.189Z,84.72
2018-12-21T01:53:35.175Z,84.92
2018-12-21T01:54:35.250Z,84.72
2018-12-21T01:55:35.142Z,84.61
2018-12-21T01:56:35.137Z,84.92
2018-12-21T01:57:35.154Z,85.44
2018-12-21T01:58:35.115Z,85.44
2018-12-21T01:59:35.107Z,85.44
2018-12-21T02:00:35.122Z,85.44
2018-12-21T02:01:35.079Z,86.36
2018-12-21T02:02:35.170Z,85.95
2018-12-21T02:03:35.059Z,85.75
2018-12-21T02:04:35.056Z,85.64
2018-12-21T02:05:35.037Z,85.54
2018-12-21T02:06:35.038Z,85.44
2018-12-21T02:07:35.049Z,86.26
2018-12-21T02:08:35.003Z,85.54
2018-12-21T02:09:34.996Z,85.44
2018-12-21T02:10:35.004Z,85.75
2018-12-21T02:11:34.964Z,86.47
2018-12-21T02:12:34.962Z,86.36
2018-12-21T02:13:34.964Z,86.71
2018-12-21T02:14:34.929Z,86.68
2018-12-21T02:15:34.919Z,86.88
2018-12-21T02:16:34.912Z,86.16
2018-12-21T02:17:34.900Z,86.47
2018-12-21T02:18:34.966Z,86.47
2018-12-21T02:19:34.896Z,86.47
2018-12-21T02:20:34.864Z,86.88
2018-12-21T02:21:34.859Z,86.68
2018-12-21T02:22:34.841Z,86.88
2018-12-21T02:23:34.870Z,87.08
2018-12-21T02:24:34.836Z,86.98
2018-12-21T02:25:34.812Z,87.13
2018-12-21T02:26:34.798Z,87.23
2018-12-21T02:27:34.810Z,87.44
2018-12-21T02:28:34.790Z,87.74
2018-12-21T02:29:34.813Z,87.71
2018-12-21T02:30:34.787Z,87.74
2018-12-21T02:31:34.744Z,87.95
2018-12-21T02:32:34.748Z,87.23
2018-12-21T02:33:34.749Z,87.40
2018-12-21T02:34:34.732Z,87.74
2018-12-21T02:35:34.698Z,87.81
2018-12-21T02:36:34.715Z,87.60
2018-12-21T02:37:34.696Z,87.81
2018-12-21T02:38:34.664Z,87.92
2018-12-21T02:39:34.698Z,87.92
2018-12-21T02:40:34.654Z,87.81
2018-12-21T02:41:34.630Z,87.40
2018-12-21T02:42:34.641Z,87.08
2018-12-21T02:43:34.632Z,87.29
2018-12-21T02:44:34.658Z,87.50
2018-12-21T02:45:34.609Z,87.29
2018-12-21T02:46:34.583Z,87.19
2018-12-21T02:47:34.612Z,87.60
2018-12-21T02:48:34.566Z,86.98
2018-12-21T02:49:34.552Z,87.29
2018-12-21T02:50:34.588Z,87.60
2018-12-21T02:51:34.550Z,87.60
2018-12-21T02:52:34.512Z,87.40
2018-12-21T02:53:34.497Z,87.81
2018-12-21T02:54:34.501Z,87.50
2018-12-21T02:55:34.527Z,87.19
2018-12-21T02:56:34.474Z,87.08
2018-12-21T02:57:34.467Z,87.40
2018-12-21T02:58:34.446Z,87.50
2018-12-21T02:59:34.440Z,87.29
2018-12-21T03:00:34.441Z,86.57
2018-12-21T03:01:34.465Z,86.88
2018-12-21T03:02:34.404Z,87.13
2018-12-21T03:03:34.413Z,87.34
2018-12-21T03:04:34.372Z,87.54
2018-12-21T03:05:34.363Z,87.19
2018-12-21T03:06:34.384Z,87.29
2018-12-21T03:07:34.351Z,86.68
2018-12-21T03:08:34.381Z,86.68
2018-12-21T03:09:34.321Z,86.88
2018-12-21T03:10:34.311Z,86.26
2018-12-21T03:11:34.330Z,86.57
2018-12-21T03:12:34.288Z,86.68
2018-12-21T03:13:34.275Z,86.57
2018-12-21T03:14:34.261Z,86.78
2018-12-21T03:15:34.251Z,86.68
2018-12-21T03:16:34.265Z,86.98
2018-12-21T03:17:34.254Z,87.08
2018-12-21T03:18:34.228Z,86.68
2018-12-21T03:19:34.244Z,87.19
2018-12-21T03:20:34.226Z,86.57
2018-12-21T03:21:34.199Z,86.57
2018-12-21T03:22:34.250Z,86.57
2018-12-21T03:23:34.185Z,86.78
2018-12-21T03:24:34.167Z,87.29
2018-12-21T03:25:34.144Z,86.57
2018-12-21T03:26:34.147Z,86.88
2018-12-21T03:27:34.154Z,86.47
2018-12-21T03:28:34.111Z,86.68
2018-12-21T03:29:34.120Z,86.98
2018-12-21T03:30:34.086Z,86.78
2018-12-21T03:31:34.082Z,86.16
2018-12-21T03:32:34.071Z,86.78
2018-12-21T03:33:34.073Z,86.68
2018-12-21T03:34:34.041Z,86.68
2018-12-21T03:35:34.032Z,86.05
2018-12-21T03:36:34.040Z,86.43
2018-12-21T03:37:34.037Z,86.16
2018-12-21T03:38:34.040Z,86.78
2018-12-21T03:39:33.990Z,86.26
2018-12-21T03:40:33.975Z,86.36
2018-12-21T03:41:33.970Z,86.47
2018-12-21T03:42:33.968Z,86.57
2018-12-21T03:43:33.990Z,86.57
2018-12-21T03:44:33.928Z,86.36
2018-12-21T03:45:33.918Z,86.78
2018-12-21T03:46:33.907Z,86.16
2018-12-21T03:47:33.903Z,86.16
2018-12-21T03:48:33.919Z,85.95
2018-12-21T03:49:33.897Z,86.26
2018-12-21T03:50:33.911Z,86.05
2018-12-21T03:51:33.856Z,86.98
2018-12-21T03:52:33.924Z,86.26
2018-12-21T03:53:33.831Z,86.26
2018-12-21T03:54:33.896Z,86.16
2018-12-21T03:55:33.804Z,86.16
2018-12-21T03:56:33.808Z,86.16
2018-12-21T03:57:33.801Z,86.26
2018-12-21T03:58:33.772Z,86.57
2018-12-21T03:59:33.783Z,85.44
2018-12-21T04:00:33.756Z,85.44
2018-12-21T04:01:33.766Z,85.44
2018-12-21T04:02:33.738Z,85.44
2018-12-21T04:03:33.725Z,85.54
2018-12-21T04:04:33.763Z,85.09
2018-12-21T04:05:33.738Z,85.13
2018-12-21T04:06:33.689Z,85.19
2018-12-21T04:07:33.676Z,85.19
2018-12-21T04:08:33.668Z,84.81
2018-12-21T04:09:33.688Z,85.23
2018-12-21T04:10:33.649Z,85.09
2018-12-21T04:11:33.635Z,85.23
2018-12-21T04:12:33.628Z,84.78
2018-12-21T04:13:33.608Z,84.47
2018-12-21T04:14:33.624Z,84.47
2018-12-21T04:15:33.614Z,85.09
2018-12-21T04:16:33.574Z,84.67
2018-12-21T04:17:33.578Z,84.47
2018-12-21T04:18:33.555Z,84.57
2018-12-21T04:19:33.539Z,84.78
2018-12-21T04:20:33.557Z,84.06
2018-12-21T04:21:33.521Z,84.16
2018-12-21T04:22:34.286Z,84.78
2018-12-21T04:23:33.503Z,84.16
2018-12-21T04:24:33.492Z,84.06
2018-12-21T04:25:33.552Z,84.57
2018-12-21T04:26:33.473Z,84.27
2018-12-21T04:27:33.453Z,84.57
2018-12-21T04:28:33.459Z,84.78
2018-12-21T04:29:33.460Z,84.67
2018-12-21T04:30:33.522Z,84.36
2018-12-21T04:31:33.428Z,84.78
2018-12-21T04:32:33.402Z,84.78
2018-12-21T04:33:33.384Z,84.99
2018-12-21T04:34:33.428Z,84.16
2018-12-21T04:35:33.385Z,84.67
2018-12-21T04:36:33.385Z,84.67
2018-12-21T04:37:33.412Z,84.47
2018-12-21T04:38:33.361Z,84.78
2018-12-21T04:39:33.321Z,84.27
2018-12-21T04:40:33.365Z,84.16
2018-12-21T04:41:33.332Z,84.16
2018-12-21T04:42:33.286Z,84.78
2018-12-21T04:43:33.295Z,84.16
2018-12-21T04:44:33.303Z,83.64
2018-12-21T04:45:33.268Z,83.44
2018-12-21T04:46:33.296Z,83.64
2018-12-21T04:47:33.252Z,83.13
2018-12-21T04:48:33.221Z,82.51
2018-12-21T04:49:33.227Z,82.61
2018-12-21T04:50:33.198Z,82.89
2018-12-21T04:51:33.186Z,82.71
2018-12-21T04:52:33.194Z,82.68
2018-12-21T04:53:33.169Z,82.89
2018-12-21T04:54:33.159Z,82.78
2018-12-21T04:55:33.159Z,82.37
2018-12-21T04:56:33.152Z,82.16
2018-12-21T04:57:33.156Z,82.26
2018-12-21T04:58:33.156Z,81.96
2018-12-21T04:59:33.098Z,82.16
2018-12-21T05:00:33.086Z,82.57
2018-12-21T05:01:33.118Z,82.16
2018-12-21T05:02:33.080Z,82.68
2018-12-21T05:03:33.090Z,81.96
2018-12-21T05:04:33.042Z,82.16
2018-12-21T05:05:33.047Z,81.54
2018-12-21T05:06:33.039Z,81.54
2018-12-21T05:07:33.032Z,81.54
2018-12-21T05:08:33.042Z,81.54
2018-12-21T05:09:33.004Z,81.68
2018-12-21T05:10:32.972Z,82.06
2018-12-21T05:11:32.966Z,81.79
2018-12-21T05:12:32.953Z,81.48
2018-12-21T05:13:33.016Z,81.68
2018-12-21T05:14:32.938Z,81.34
2018-12-21T05:15:32.947Z,81.44
2018-12-21T05:16:32.999Z,81.34
2018-12-21T05:17:32.897Z,81.44
2018-12-21T05:18:32.887Z,81.03
2018-12-21T05:19:32.901Z,81.68
2018-12-21T05:20:32.871Z,81.03
2018-12-21T05:21:32.856Z,81.34
2018-12-21T05:22:32.855Z,81.03
2018-12-21T05:23:32.833Z,80.82
2018-12-21T05:24:32.879Z,81.68
2018-12-21T05:25:32.821Z,81.23
2018-12-21T05:26:32.800Z,80.93
2018-12-21T05:27:32.797Z,80.93
2018-12-21T05:28:32.786Z,80.93
2018-12-21T05:29:32.819Z,80.93
2018-12-21T05:30:32.762Z,81.17
2018-12-21T05:31:32.765Z,81.03
2018-12-21T05:32:32.730Z,81.23
2018-12-21T05:33:32.741Z,80.82
2018-12-21T05:34:32.743Z,81.03
2018-12-21T05:35:32.705Z,80.93
2018-12-21T05:36:32.694Z,81.13
2018-12-21T05:37:32.696Z,81.03
2018-12-21T05:38:32.663Z,80.62
2018-12-21T05:39:32.680Z,80.00
2018-12-21T05:40:32.672Z,79.90
2018-12-21T05:41:32.631Z,80.51
2018-12-21T05:42:32.624Z,80.51
2018-12-21T05:43:32.636Z,79.79
2018-12-21T05:44:32.659Z,80.51
2018-12-21T05:45:32.620Z,80.20
2018-12-21T05:46:32.586Z,80.51
2018-12-21T05:47:32.585Z,80.10
2018-12-21T05:48:32.567Z,79.79
2018-12-21T05:49:32.571Z,79.90
2018-12-21T05:50:32.550Z,80.00
2018-12-21T05:51:32.517Z,80.10
2018-12-21T05:52:32.525Z,80.00
2018-12-21T05:53:32.502Z,79.90
2018-12-21T05:54:32.518Z,80.00
2018-12-21T05:55:32.514Z,80.00
2018-12-21T05:56:32.466Z,79.79
2018-12-21T05:57:32.456Z,79.79
2018-12-21T05:58:32.470Z,80.00
2018-12-21T05:59:32.435Z,80.10
2018-12-21T06:00:32.451Z,80.10
2018-12-21T06:01:32.414Z,79.79
2018-12-21T06:02:32.399Z,80.00
2018-12-21T06:03:32.392Z,79.69
2018-12-21T06:04:32.407Z,80.00
2018-12-21T06:05:32.379Z,79.79
2018-12-21T06:06:32.385Z,79.79
2018-12-21T06:07:33.871Z,79.90
2018-12-21T06:08:32.345Z,79.48
2018-12-21T06:09:32.320Z,79.90
2018-12-21T06:10:32.325Z,79.90
2018-12-21T06:11:32.319Z,80.10
2018-12-21T06:12:32.294Z,80.10
2018-12-21T06:13:32.277Z,80.30
2018-12-21T06:14:32.271Z,79.27
2018-12-21T06:15:32.288Z,80.10
2018-12-21T06:16:32.298Z,80.00
2018-12-21T06:17:32.251Z,80.00
2018-12-21T06:18:32.217Z,79.27
2018-12-21T06:19:32.220Z,79.79
2018-12-21T06:20:32.205Z,79.90
2018-12-21T06:21:32.217Z,79.69
2018-12-21T06:22:32.199Z,79.90
2018-12-21T06:23:32.170Z,79.79
2018-12-21T06:24:32.161Z,79.90
2018-12-21T06:25:32.151Z,80.00
2018-12-21T06:26:32.144Z,79.48
2018-12-21T06:27:32.169Z,80.10
2018-12-21T06:28:32.118Z,79.79
2018-12-21T06:29:32.100Z,80.10
2018-12-21T06:30:32.119Z,79.90
2018-12-21T06:31:32.083Z,79.90
2018-12-21T06:32:32.089Z,79.58
2018-12-21T06:33:32.054Z,79.69
2018-12-21T06:34:32.050Z,79.69
2018-12-21T06:35:32.088Z,80.10
2018-12-21T06:37:24.700Z,80.14
2018-12-21T06:38:26.555Z,79.90
2018-12-21T06:39:24.583Z,80.00
2018-12-21T06:40:24.893Z,79.93
2018-12-21T06:41:24.543Z,79.90
2018-12-21T06:42:24.616Z,80.10
2018-12-21T06:43:25.793Z,79.69
2018-12-21T06:44:24.738Z,79.90
2018-12-21T06:45:25.102Z,79.27
2018-12-21T06:46:24.512Z,79.58
2018-12-21T06:47:24.467Z,80.14
2018-12-21T06:48:24.473Z,79.48
2018-12-21T06:49:24.459Z,79.69
2018-12-21T06:50:24.442Z,79.48
2018-12-21T06:51:24.433Z,79.90
2018-12-21T06:52:24.424Z,79.69
2018-12-21T06:53:24.496Z,79.79
2018-12-21T06:54:24.430Z,79.58
2018-12-21T06:55:24.388Z,79.72
2018-12-21T06:56:24.372Z,80.00
2018-12-21T06:57:24.361Z,79.93
2018-12-21T06:58:24.383Z,79.58
2018-12-21T06:59:24.360Z,80.10
2018-12-21T07:00:24.438Z,80.14
2018-12-21T07:01:24.303Z,80.00
2018-12-21T07:02:24.308Z,79.69
2018-12-21T07:03:24.292Z,79.41
2018-12-21T07:04:24.289Z,79.48
2018-12-21T07:05:24.286Z,79.38
2018-12-21T07:06:24.246Z,79.38
2018-12-21T07:07:24.250Z,79.48
2018-12-21T07:08:24.208Z,79.48
2018-12-21T07:09:24.262Z,79.27
2018-12-21T07:10:24.214Z,79.27
2018-12-21T07:11:24.206Z,79.27
2018-12-21T07:12:24.214Z,79.27
2018-12-21T07:13:24.208Z,79.38
2018-12-21T07:14:24.200Z,78.97
2018-12-21T07:15:24.190Z,79.27
2018-12-21T07:16:24.156Z,79.17
2018-12-21T07:17:24.136Z,79.55
2018-12-21T07:18:24.161Z,79.38
2018-12-21T07:19:24.125Z,79.17
2018-12-21T07:20:24.129Z,78.72
2018-12-21T07:21:24.210Z,78.72
2018-12-21T07:22:24.071Z,78.72
2018-12-21T07:23:27.201Z,78.86
2018-12-21T07:24:24.091Z,78.86
2018-12-21T07:25:24.069Z,79.14
2018-12-21T07:26:24.038Z,78.97
2018-12-21T07:27:24.035Z,78.93
2018-12-21T07:28:24.037Z,78.04
2018-12-21T07:29:24.049Z,78.41
2018-12-21T07:30:24.038Z,78.93
2018-12-21T07:31:24.035Z,78.93
2018-12-21T07:32:23.987Z,78.93
2018-12-21T07:33:23.968Z,78.11
2018-12-21T07:34:26.022Z,78.76
2018-12-21T07:35:23.943Z,78.62
2018-12-21T07:36:23.947Z,78.00
2018-12-21T07:37:23.910Z,78.62
2018-12-21T07:38:24.000Z,78.62
2018-12-21T07:39:23.910Z,78.62
2018-12-21T07:40:23.899Z,78.62
2018-12-21T07:41:23.906Z,78.41
2018-12-21T07:42:23.888Z,78.41
2018-12-21T07:43:23.849Z,77.59
2018-12-21T07:44:23.859Z,78.41
2018-12-21T07:45:23.847Z,77.59
2018-12-21T07:46:23.872Z,78.41
2018-12-21T07:47:23.830Z,78.41
2018-12-21T07:48:23.849Z,78.31
2018-12-21T07:49:23.779Z,78.52
2018-12-21T07:50:23.911Z,78.11
2018-12-21T07:51:23.759Z,78.11
2018-12-21T07:52:23.757Z,78.41
2018-12-21T07:53:23.757Z,78.52
2018-12-21T07:54:23.727Z,78.31
2018-12-21T07:55:23.756Z,78.21
2018-12-21T07:56:23.800Z,78.41
2018-12-21T07:57:23.717Z,78.21
2018-12-21T07:58:23.719Z,78.52
2018-12-21T07:59:23.665Z,78.41
2018-12-21T08:00:23.654Z,77.90
2018-12-21T08:01:23.669Z,77.69
2018-12-21T08:02:23.672Z,78.83
2018-12-21T08:03:23.679Z,78.52
2018-12-21T08:04:23.620Z,78.00
2018-12-21T08:05:23.636Z,78.41
2018-12-21T08:06:23.615Z,78.31
2018-12-21T08:07:23.605Z,78.41
2018-12-21T08:08:23.578Z,78.11
2018-12-21T08:09:23.617Z,78.11
2018-12-21T08:10:23.589Z,78.07
2018-12-21T08:11:23.574Z,78.38
2018-12-21T08:12:23.533Z,77.66
2018-12-21T08:13:23.524Z,78.11
2018-12-21T08:14:23.540Z,78.07
2018-12-21T08:15:23.523Z,77.80
2018-12-21T08:16:23.474Z,78.11
2018-12-21T08:17:23.507Z,78.38
2018-12-21T08:18:23.460Z,78.41
2018-12-21T08:19:23.465Z,77.97
2018-12-21T08:20:23.454Z,78.07
2018-12-21T08:21:23.462Z,78.07
2018-12-21T08:22:23.409Z,77.97
2018-12-21T08:23:23.532Z,78.17
2018-12-21T08:24:23.431Z,77.86
2018-12-21T08:25:23.399Z,77.86
2018-12-21T08:26:23.382Z,78.07
2018-12-21T08:27:23.356Z,78.48
2018-12-21T08:28:24.361Z,78.48
2018-12-21T08:29:23.355Z,77.66
2018-12-21T08:30:23.366Z,77.76
2018-12-21T08:31:23.310Z,77.25
2018-12-21T08:32:23.384Z,77.04
2018-12-21T08:33:23.338Z,77.35
2018-12-21T08:34:23.268Z,77.45
2018-12-21T08:35:23.292Z,77.45
2018-12-21T08:36:23.273Z,77.35
2018-12-21T08:37:23.226Z,77.66
2018-12-21T08:38:23.260Z,77.55
2018-12-21T08:39:23.235Z,77.86
2018-12-21T08:40:23.266Z,77.51
2018-12-21T08:41:23.220Z,77.97
2018-12-21T08:42:23.229Z,77.76
2018-12-21T08:43:23.199Z,77.97
2018-12-21T08:44:23.191Z,77.97
2018-12-21T08:45:23.194Z,77.86
2018-12-21T08:46:23.171Z,77.86
2018-12-21T08:47:23.163Z,77.55
2018-12-21T08:48:23.167Z,78.07
2018-12-21T08:49:23.134Z,78.07
2018-12-21T08:50:23.148Z,78.24
2018-12-21T08:51:23.103Z,78.58
2018-12-21T08:52:23.170Z,78.58
2018-12-21T08:53:23.102Z,78.79
2018-12-21T08:54:23.059Z,78.65
2018-12-21T08:55:23.060Z,78.86
2018-12-21T08:56:23.060Z,78.65
2018-12-21T08:57:23.036Z,78.38
2018-12-21T08:58:23.062Z,78.79
2018-12-21T08:59:23.029Z,78.58
2018-12-21T09:00:23.031Z,79.30
2018-12-21T09:01:22.994Z,79.37
2018-12-21T09:02:23.035Z,79.51
2018-12-21T09:03:22.951Z,79.61
2018-12-21T09:04:22.982Z,79.30
2018-12-21T09:05:22.951Z,79.51
2018-12-21T09:06:22.947Z,78.79
2018-12-21T09:07:22.955Z,79.00
2018-12-21T09:08:22.914Z,79.41
2018-12-21T09:09:22.944Z,79.51
2018-12-21T09:10:22.919Z,80.13
2018-12-21T09:11:22.912Z,80.02
2018-12-21T09:12:22.869Z,79.61
2018-12-21T09:13:22.883Z,80.09
2018-12-21T09:14:22.857Z,80.02
2018-12-21T09:15:22.869Z,79.93
2018-12-21T09:16:22.823Z,80.02
2018-12-21T09:17:22.806Z,80.33
2018-12-21T09:18:22.778Z,80.89
2018-12-21T09:19:22.792Z,81.16
2018-12-21T09:20:22.813Z,80.99
2018-12-21T09:21:22.787Z,81.20
2018-12-21T09:22:22.776Z,81.30
2018-12-21T09:23:22.747Z,80.89
2018-12-21T09:24:22.775Z,81.51
2018-12-21T09:25:22.765Z,81.47
2018-12-21T09:26:22.729Z,81.61
2018-12-21T09:27:22.727Z,82.33
2018-12-21T09:28:22.726Z,82.70
2018-12-21T09:29:22.693Z,81.98
2018-12-21T09:30:22.726Z,81.81
2018-12-21T09:31:22.661Z,81.61
2018-12-21T09:32:22.632Z,82.50
2018-12-21T09:33:22.629Z,81.57
2018-12-21T09:34:22.633Z,81.98
2018-12-21T09:35:22.611Z,82.29
2018-12-21T09:36:22.626Z,81.88
2018-12-21T09:37:22.610Z,82.60
2018-12-21T09:38:22.563Z,82.19
2018-12-21T09:39:22.586Z,81.88
2018-12-21T09:40:22.586Z,81.16
2018-12-21T09:41:22.544Z,82.02
2018-12-21T09:42:22.591Z,82.81
2018-12-21T09:43:22.528Z,81.67
2018-12-21T09:44:22.549Z,81.40
2018-12-21T09:45:22.561Z,81.37
2018-12-21T09:46:22.533Z,80.75
2018-12-21T09:47:22.486Z,80.95
2018-12-21T09:48:23.381Z,80.75
2018-12-21T09:49:22.459Z,80.95
2018-12-21T09:50:22.409Z,80.85
2018-12-21T09:51:22.441Z,81.37
2018-12-21T09:52:22.473Z,81.16
2018-12-21T09:53:22.409Z,81.47
2018-12-21T09:54:22.403Z,80.65
2018-12-21T09:55:22.401Z,80.02
2018-12-21T09:56:22.355Z,79.93
2018-12-21T09:57:22.370Z,80.02
2018-12-21T09:58:22.342Z,80.54
2018-12-21T09:59:22.331Z,80.02
2018-12-21T10:00:22.299Z,80.23
2018-12-21T10:01:22.336Z,79.93
2018-12-21T10:02:22.281Z,79.88
2018-12-21T10:03:22.282Z,79.99
2018-12-21T10:04:22.292Z,80.09
2018-12-21T10:05:22.248Z,79.88
2018-12-21T10:06:22.234Z,79.72
2018-12-21T10:07:27.590Z,79.58
2018-12-21T10:08:23.243Z,79.79
2018-12-21T10:09:22.206Z,79.88
2018-12-21T10:10:22.223Z,80.19
2018-12-21T10:11:22.176Z,79.30
2018-12-21T10:12:22.178Z,79.30
2018-12-21T10:13:22.161Z,79.51
2018-12-21T10:14:22.145Z,79.82
2018-12-21T10:15:22.169Z,79.27
2018-12-21T10:16:22.126Z,79.27
2018-12-21T10:17:22.118Z,79.47
2018-12-21T10:18:22.101Z,79.47
2018-12-21T10:19:22.091Z,79.27
2018-12-21T10:20:22.114Z,78.65
2018-12-21T10:21:22.086Z,79.06
2018-12-21T10:22:22.058Z,79.47
2018-12-21T10:23:22.050Z,79.68
2018-12-21T10:24:22.045Z,79.68
2018-12-21T10:25:22.037Z,79.99
2018-12-21T10:26:22.033Z,79.79
2018-12-21T10:27:22.007Z,79.99
2018-12-21T10:28:22.001Z,79.47
2018-12-21T10:29:21.981Z,79.58
2018-12-21T10:30:21.972Z,79.37
2018-12-21T10:31:21.982Z,79.79
2018-12-21T10:32:21.945Z,79.99
2018-12-21T10:33:21.945Z,79.88
2018-12-21T10:34:21.926Z,80.40
2018-12-21T10:35:21.919Z,79.88
2018-12-21T10:36:21.924Z,80.30
2018-12-21T10:37:21.899Z,79.99
2018-12-21T10:38:21.899Z,79.99
2018-12-21T10:39:21.876Z,79.88
2018-12-21T10:40:21.880Z,80.51
2018-12-21T10:41:21.870Z,79.79
2018-12-21T10:42:21.853Z,80.19
2018-12-21T10:43:21.826Z,80.51
2018-12-21T10:44:21.821Z,81.53
2018-12-21T10:45:21.871Z,81.12
2018-12-21T10:46:21.831Z,80.91
2018-12-21T10:47:21.792Z,81.02
2018-12-21T10:48:21.784Z,80.71
2018-12-21T10:49:21.817Z,80.91
2018-12-21T10:50:21.769Z,81.12
2018-12-21T10:51:21.770Z,81.33
2018-12-21T10:52:21.733Z,81.19
2018-12-21T10:53:21.741Z,81.39
2018-12-21T10:54:26.792Z,81.33
2018-12-21T10:55:22.720Z,81.95
2018-12-21T10:56:21.696Z,81.95
2018-12-21T10:57:21.684Z,81.43
2018-12-21T10:58:21.661Z,81.23
2018-12-21T10:59:21.668Z,82.15
2018-12-21T11:00:21.689Z,82.56
2018-12-21T11:01:21.639Z,82.01
2018-12-21T11:02:21.632Z,82.56
2018-12-21T11:03:21.641Z,81.95
2018-12-21T11:04:21.606Z,81.95
2018-12-21T11:05:21.648Z,81.81
2018-12-21T11:06:21.594Z,82.25
2018-12-21T11:07:21.567Z,82.53
2018-12-21T11:08:21.571Z,82.11
2018-12-21T11:09:21.561Z,82.73
2018-12-21T11:10:21.541Z,82.35
2018-12-21T11:11:21.562Z,82.63
2018-12-21T11:12:21.526Z,83.04
2018-12-21T11:13:21.503Z,83.90
2018-12-21T11:14:21.485Z,83.28
2018-12-21T11:15:21.487Z,83.28
2018-12-21T11:16:21.475Z,84.31
2018-12-21T11:17:21.484Z,84.31
2018-12-21T11:18:21.448Z,84.42
2018-12-21T11:19:21.435Z,84.00
2018-12-21T11:20:21.425Z,83.90
2018-12-21T11:21:21.422Z,84.00
2018-12-21T11:22:21.525Z,84.52
2018-12-21T11:23:21.417Z,84.42
2018-12-21T11:24:21.393Z,84.66
2018-12-21T11:25:21.403Z,84.52
2018-12-21T11:26:21.353Z,84.83
2018-12-21T11:27:21.376Z,84.56
2018-12-21T11:28:25.412Z,84.72
2018-12-21T11:29:21.325Z,85.03
2018-12-21T11:30:21.327Z,84.62
2018-12-21T11:31:21.342Z,84.87
2018-12-21T11:32:21.320Z,84.56
2018-12-21T11:33:21.282Z,84.77
2018-12-21T11:34:21.265Z,85.07
2018-12-21T11:35:21.259Z,85.07
2018-12-21T11:36:21.270Z,86.10
2018-12-21T11:37:21.259Z,85.75
2018-12-21T11:38:21.226Z,86.16
2018-12-21T11:39:21.214Z,85.17
2018-12-21T11:40:21.235Z,85.79
2018-12-21T11:41:21.234Z,86.10
2018-12-21T11:42:21.250Z,86.21
2018-12-21T11:43:21.178Z,86.21
2018-12-21T11:44:21.179Z,86.82
2018-12-21T11:45:21.168Z,86.52
2018-12-21T11:46:21.160Z,86.61
2018-12-21T11:47:21.132Z,86.52
2018-12-21T11:48:21.113Z,86.61
2018-12-21T11:49:21.119Z,86.52
2018-12-21T11:50:21.130Z,86.82
2018-12-21T11:51:21.079Z,86.82
2018-12-21T11:52:21.088Z,87.17
2018-12-21T11:53:21.061Z,86.76
2018-12-21T11:54:21.046Z,86.55
2018-12-21T11:55:21.056Z,86.97
2018-12-21T11:56:21.055Z,86.76
2018-12-21T11:57:21.026Z,86.87
2018-12-21T11:58:21.039Z,87.13
2018-12-21T11:59:21.005Z,86.45
2018-12-21T12:00:20.986Z,86.97
2018-12-21T12:01:21.003Z,87.44
2018-12-21T12:02:20.968Z,87.65
2018-12-21T12:03:20.979Z,87.34
2018-12-21T12:04:20.968Z,87.17
2018-12-21T12:05:20.945Z,86.97
2018-12-21T12:06:20.980Z,87.69
2018-12-21T12:07:20.910Z,87.44
2018-12-21T12:08:20.895Z,87.13
2018-12-21T12:09:20.884Z,86.41
2018-12-21T12:10:20.884Z,87.03
2018-12-21T12:11:20.862Z,87.03
2018-12-21T12:12:20.875Z,87.13
2018-12-21T12:13:20.852Z,86.93
2018-12-21T12:14:20.841Z,86.87
2018-12-21T12:15:20.830Z,87.65
2018-12-21T12:16:20.864Z,88.06
2018-12-21T12:17:20.914Z,87.59
2018-12-21T12:18:20.787Z,87.79
2018-12-21T12:19:20.807Z,87.99
2018-12-21T12:20:20.764Z,87.69
2018-12-21T12:21:20.750Z,87.99
2018-12-21T12:22:20.803Z,89.13
2018-12-21T12:23:20.729Z,88.92
2018-12-21T12:24:20.716Z,88.92
2018-12-21T12:25:20.709Z,89.44
2018-12-21T12:26:20.701Z,89.13
2018-12-21T12:27:20.699Z,89.13
2018-12-21T12:28:20.696Z,88.82
2018-12-21T12:29:20.690Z,88.99
2018-12-21T12:30:20.655Z,88.82
2018-12-21T12:31:20.754Z,89.03
2018-12-21T12:32:20.647Z,88.68
2018-12-21T12:33:20.644Z,88.92
2018-12-21T12:34:20.612Z,88.82
2018-12-21T12:35:20.602Z,88.92
2018-12-21T12:36:20.582Z,89.03
2018-12-21T12:37:20.588Z,88.72
2018-12-21T12:38:20.581Z,88.51
2018-12-21T12:39:20.550Z,88.82
2018-12-21T12:40:20.550Z,89.03
2018-12-21T12:41:20.526Z,89.40
2018-12-21T12:42:20.530Z,89.34
2018-12-21T12:43:20.519Z,89.23
2018-12-21T12:44:20.502Z,89.44
2018-12-21T12:45:20.485Z,89.13
2018-12-21T12:46:20.481Z,89.44
2018-12-21T12:47:20.459Z,89.23
2018-12-21T12:48:20.475Z,89.65
2018-12-21T12:49:20.437Z,89.23
2018-12-21T12:50:20.460Z,89.44
2018-12-21T12:51:20.415Z,89.34
2018-12-21T12:52:20.416Z,89.34
2018-12-21T12:53:20.798Z,89.44